Terminal Aerodrome Forecast
Issued by NWS Wichita, KS

Home | Current Version | Previous Version | Text Only | Print | Product List | Glossary Off
Versions: 1 2 3 4 5 6 7 8 9 10 11 12 13 14 15 16 17

059
FTUS43 KICT 032328
TAFICT
TAF
KICT 032328Z 0400/0424 24006KT P6SM SCT080
     FM040300 28006KT P6SM SKC
     FM041300 34014KT P6SM SKC
     FM041600 36015G22KT P6SM SKC=

USA.gov is the U.S. government's official web portal to all federal, state and local government web resources and services.